sensor_id;sensor_type;location;lat;lon;timestamp;pressure;altitude;pressure_sealevel;temperature;humidity
75775;BME280;64505;51.458;7.556;2023-05-14T00:00:36;100027.19;;;10.14;85.09
75775;BME280;64505;51.458;7.556;2023-05-14T00:02:38;100017.06;;;10.11;84.83
75775;BME280;64505;51.458;7.556;2023-05-14T00:04:40;100018.88;;;10.10;86.08
75775;BME280;64505;51.458;7.556;2023-05-14T00:06:41;100017.69;;;10.06;85.71
75775;BME280;64505;51.458;7.556;2023-05-14T00:08:43;100014.66;;;10.03;84.79
75775;BME280;64505;51.458;7.556;2023-05-14T00:10:45;100015.88;;;10.00;85.48
75775;BME280;64505;51.458;7.556;2023-05-14T00:12:46;100015.50;;;9.97;86.05
75775;BME280;64505;51.458;7.556;2023-05-14T00:14:48;100007.38;;;9.92;85.65
75775;BME280;64505;51.458;7.556;2023-05-14T00:16:49;100007.00;;;9.88;85.79
75775;BME280;64505;51.458;7.556;2023-05-14T00:18:51;100009.25;;;9.84;85.78
75775;BME280;64505;51.458;7.556;2023-05-14T00:20:53;100009.69;;;9.81;85.07
75775;BME280;64505;51.458;7.556;2023-05-14T00:22:55;100011.94;;;9.78;85.83
75775;BME280;64505;51.458;7.556;2023-05-14T00:24:56;100006.88;;;9.76;86.48
75775;BME280;64505;51.458;7.556;2023-05-14T00:26:58;100000.78;;;9.76;87.42
75775;BME280;64505;51.458;7.556;2023-05-14T00:28:59;100004.00;;;9.78;87.63
75775;BME280;64505;51.458;7.556;2023-05-14T00:31:01;99994.50;;;9.70;88.20
75775;BME280;64505;51.458;7.556;2023-05-14T00:33:03;99997.31;;;9.75;87.18
75775;BME280;64505;51.458;7.556;2023-05-14T00:35:05;99997.53;;;9.74;86.67
75775;BME280;64505;51.458;7.556;2023-05-14T00:37:06;100009.91;;;9.73;86.52
75775;BME280;64505;51.458;7.556;2023-05-14T00:39:08;100004.25;;;9.70;86.39
75775;BME280;64505;51.458;7.556;2023-05-14T00:41:10;100002.03;;;9.67;86.62
75775;BME280;64505;51.458;7.556;2023-05-14T00:43:12;100004.88;;;9.65;86.97
75775;BME280;64505;51.458;7.556;2023-05-14T00:45:13;99999.81;;;9.64;87.29
75775;BME280;64505;51.458;7.556;2023-05-14T00:47:15;100006.91;;;9.63;87.06
75775;BME280;64505;51.458;7.556;2023-05-14T00:49:17;100006.72;;;9.65;87.33
75775;BME280;64505;51.458;7.556;2023-05-14T00:51:19;99993.94;;;9.62;87.71
75775;BME280;64505;51.458;7.556;2023-05-14T00:53:21;99995.75;;;9.61;87.76
75775;BME280;64505;51.458;7.556;2023-05-14T00:55:22;99996.78;;;9.60;86.87
75775;BME280;64505;51.458;7.556;2023-05-14T00:57:24;99998.81;;;9.58;87.26
75775;BME280;64505;51.458;7.556;2023-05-14T00:59:25;100001.84;;;9.55;87.05
75775;BME280;64505;51.458;7.556;2023-05-14T01:01:27;99997.38;;;9.56;85.78
75775;BME280;64505;51.458;7.556;2023-05-14T01:03:34;99993.34;;;9.53;86.62
75775;BME280;64505;51.458;7.556;2023-05-14T01:05:57;99987.47;;;9.51;85.58
75775;BME280;64505;51.458;7.556;2023-05-14T01:10:51;99997.41;;;9.49;86.18
75775;BME280;64505;51.458;7.556;2023-05-14T01:13:01;99998.66;;;9.47;87.92
75775;BME280;64505;51.458;7.556;2023-05-14T01:17:10;99986.28;;;9.40;86.83
75775;BME280;64505;51.458;7.556;2023-05-14T01:21:39;99986.06;;;9.42;86.59
75775;BME280;64505;51.458;7.556;2023-05-14T01:23:43;99987.69;;;9.43;86.40
75775;BME280;64505;51.458;7.556;2023-05-14T01:25:44;99988.91;;;9.40;87.16
75775;BME280;64505;51.458;7.556;2023-05-14T01:30:30;99981.25;;;9.32;87.14
75775;BME280;64505;51.458;7.556;2023-05-14T01:32:32;99975.56;;;9.29;86.64
75775;BME280;64505;51.458;7.556;2023-05-14T01:34:35;99981.66;;;9.29;87.30
75775;BME280;64505;51.458;7.556;2023-05-14T01:36:39;99981.03;;;9.27;86.90
75775;BME280;64505;51.458;7.556;2023-05-14T01:38:41;99969.28;;;9.23;86.24
75775;BME280;64505;51.458;7.556;2023-05-14T01:40:46;99966.06;;;9.21;87.22
75775;BME280;64505;51.458;7.556;2023-05-14T01:42:49;99966.66;;;9.17;86.92
75775;BME280;64505;51.458;7.556;2023-05-14T01:44:52;99975.97;;;9.19;86.17
75775;BME280;64505;51.458;7.556;2023-05-14T01:46:54;99975.41;;;9.11;87.80
75775;BME280;64505;51.458;7.556;2023-05-14T01:48:56;99967.50;;;9.11;87.47
75775;BME280;64505;51.458;7.556;2023-05-14T01:50:57;99973.59;;;9.11;87.21
75775;BME280;64505;51.458;7.556;2023-05-14T01:52:59;99971.97;;;9.10;87.07
75775;BME280;64505;51.458;7.556;2023-05-14T01:55:00;99970.56;;;9.08;86.89
75775;BME280;64505;51.458;7.556;2023-05-14T01:57:02;99972.56;;;9.06;87.95
75775;BME280;64505;51.458;7.556;2023-05-14T01:59:04;99973.81;;;9.03;87.51
75775;BME280;64505;51.458;7.556;2023-05-14T02:01:05;99973.00;;;9.03;87.14
75775;BME280;64505;51.458;7.556;2023-05-14T02:03:07;99970.94;;;9.05;87.96
75775;BME280;64505;51.458;7.556;2023-05-14T02:05:10;99965.88;;;9.03;88.30
75775;BME280;64505;51.458;7.556;2023-05-14T02:07:11;99971.16;;;9.03;88.25
75775;BME280;64505;51.458;7.556;2023-05-14T02:09:13;99964.25;;;9.02;87.53
75775;BME280;64505;51.458;7.556;2023-05-14T02:11:15;99966.91;;;9.02;87.37
75775;BME280;64505;51.458;7.556;2023-05-14T02:13:16;99964.69;;;8.99;87.14
75775;BME280;64505;51.458;7.556;2023-05-14T02:15:18;99969.94;;;8.99;87.47
75775;BME280;64505;51.458;7.556;2023-05-14T02:17:44;99965.28;;;8.95;88.07
75775;BME280;64505;51.458;7.556;2023-05-14T02:20:10;99971.56;;;8.94;88.11
75775;BME280;64505;51.458;7.556;2023-05-14T02:22:12;99962.25;;;8.91;88.55
75775;BME280;64505;51.458;7.556;2023-05-14T02:24:13;99961.44;;;8.90;87.70
75775;BME280;64505;51.458;7.556;2023-05-14T02:26:15;99964.28;;;8.89;87.34
75775;BME280;64505;51.458;7.556;2023-05-14T02:28:16;99953.94;;;8.87;88.67
75775;BME280;64505;51.458;7.556;2023-05-14T02:30:20;99952.53;;;8.85;87.85
75775;BME280;64505;51.458;7.556;2023-05-14T02:32:22;99957.00;;;8.84;86.99
75775;BME280;64505;51.458;7.556;2023-05-14T02:34:23;99959.22;;;8.81;88.32
75775;BME280;64505;51.458;7.556;2023-05-14T02:36:28;99954.97;;;8.80;87.47
75775;BME280;64505;51.458;7.556;2023-05-14T02:38:30;99959.41;;;8.79;88.73
75775;BME280;64505;51.458;7.556;2023-05-14T02:40:31;99956.19;;;8.77;87.21
75775;BME280;64505;51.458;7.556;2023-05-14T02:42:33;99957.41;;;8.75;87.27
75775;BME280;64505;51.458;7.556;2023-05-14T02:44:35;99960.44;;;8.72;87.67
75775;BME280;64505;51.458;7.556;2023-05-14T02:46:37;99954.56;;;8.70;87.88
75775;BME280;64505;51.458;7.556;2023-05-14T02:48:38;99957.41;;;8.68;87.53
75775;BME280;64505;51.458;7.556;2023-05-14T02:50:40;99960.03;;;8.68;87.47
75775;BME280;64505;51.458;7.556;2023-05-14T02:52:42;99960.66;;;8.70;88.82
75775;BME280;64505;51.458;7.556;2023-05-14T02:54:43;99957.00;;;8.65;88.96
75775;BME280;64505;51.458;7.556;2023-05-14T02:56:45;99951.94;;;8.63;87.23
75775;BME280;64505;51.458;7.556;2023-05-14T02:58:47;99951.13;;;8.63;87.47
75775;BME280;64505;51.458;7.556;2023-05-14T03:00:48;99959.63;;;8.65;86.99
75775;BME280;64505;51.458;7.556;2023-05-14T03:02:51;99957.81;;;8.65;88.35
75775;BME280;64505;51.458;7.556;2023-05-14T03:04:53;99959.84;;;8.70;88.47
75775;BME280;64505;51.458;7.556;2023-05-14T03:06:54;99956.19;;;8.71;88.94
75775;BME280;64505;51.458;7.556;2023-05-14T03:08:56;99952.53;;;8.72;89.13
75775;BME280;64505;51.458;7.556;2023-05-14T03:10:57;99953.16;;;8.74;87.54
75775;BME280;64505;51.458;7.556;2023-05-14T03:12:59;99946.25;;;8.73;88.12
75775;BME280;64505;51.458;7.556;2023-05-14T03:15:01;99954.56;;;8.76;88.13
75775;BME280;64505;51.458;7.556;2023-05-14T03:17:02;99950.28;;;8.75;87.64
75775;BME280;64505;51.458;7.556;2023-05-14T03:19:04;99946.88;;;8.75;88.79
75775;BME280;64505;51.458;7.556;2023-05-14T03:21:06;99954.56;;;8.76;87.66
75775;BME280;64505;51.458;7.556;2023-05-14T03:23:09;99951.34;;;8.74;88.91
75775;BME280;64505;51.458;7.556;2023-05-14T03:25:11;99956.38;;;8.76;88.22
75775;BME280;64505;51.458;7.556;2023-05-14T03:27:12;99949.50;;;8.75;88.35
75775;BME280;64505;51.458;7.556;2023-05-14T03:29:14;99950.28;;;8.75;87.64
75775;BME280;64505;51.458;7.556;2023-05-14T03:31:18;99947.66;;;8.75;87.08
75775;BME280;64505;51.458;7.556;2023-05-14T03:33:20;99951.09;;;8.76;87.28
75775;BME280;64505;51.458;7.556;2023-05-14T03:35:22;99951.94;;;8.76;87.95
75775;BME280;64505;51.458;7.556;2023-05-14T03:37:23;99941.78;;;8.73;88.58
75775;BME280;64505;51.458;7.556;2023-05-14T03:39:25;99943.84;;;8.71;88.12
75775;BME280;64505;51.458;7.556;2023-05-14T03:41:26;99937.13;;;8.69;88.22
75775;BME280;64505;51.458;7.556;2023-05-14T03:43:28;99939.75;;;8.69;88.48
75775;BME280;64505;51.458;7.556;2023-05-14T03:45:31;99940.41;;;8.64;87.91
75775;BME280;64505;51.458;7.556;2023-05-14T03:47:32;99939.59;;;8.64;87.89
75775;BME280;64505;51.458;7.556;2023-05-14T03:49:34;99936.94;;;8.64;87.63
75775;BME280;64505;51.458;7.556;2023-05-14T03:51:35;99942.22;;;8.64;87.07
75775;BME280;64505;51.458;7.556;2023-05-14T03:53:37;99936.31;;;8.62;86.84
75775;BME280;64505;51.458;7.556;2023-05-14T03:55:38;99937.94;;;8.63;87.08
75775;BME280;64505;51.458;7.556;2023-05-14T03:57:40;99941.59;;;8.62;87.71
75775;BME280;64505;51.458;7.556;2023-05-14T03:59:41;99942.41;;;8.62;87.69
75775;BME280;64505;51.458;7.556;2023-05-14T04:01:43;99938.78;;;8.63;86.74
75775;BME280;64505;51.458;7.556;2023-05-14T04:03:45;99935.50;;;8.61;87.00
75775;BME280;64505;51.458;7.556;2023-05-14T04:05:46;99942.00;;;8.59;87.35
75775;BME280;64505;51.458;7.556;2023-05-14T04:07:48;99940.38;;;8.58;87.62
75775;BME280;64505;51.458;7.556;2023-05-14T04:09:50;99940.38;;;8.58;87.89
75775;BME280;64505;51.458;7.556;2023-05-14T04:11:51;99941.41;;;8.57;87.46
75775;BME280;64505;51.458;7.556;2023-05-14T04:13:53;99940.59;;;8.56;86.47
75775;BME280;64505;51.458;7.556;2023-05-14T04:15:54;99932.69;;;8.56;86.26
75775;BME280;64505;51.458;7.556;2023-05-14T04:17:56;99932.88;;;8.55;86.06
75775;BME280;64505;51.458;7.556;2023-05-14T04:19:58;99933.69;;;8.55;86.91
75775;BME280;64505;51.458;7.556;2023-05-14T04:21:59;99925.97;;;8.54;86.93
75775;BME280;64505;51.458;7.556;2023-05-14T04:24:01;99934.50;;;8.56;86.12
75775;BME280;64505;51.458;7.556;2023-05-14T04:26:02;99935.91;;;8.58;87.38
75775;BME280;64505;51.458;7.556;2023-05-14T04:28:05;99925.38;;;8.58;87.16
75775;BME280;64505;51.458;7.556;2023-05-14T04:30:07;99928.84;;;8.59;87.21
75775;BME280;64505;51.458;7.556;2023-05-14T04:32:09;99928.63;;;8.60;87.20
75775;BME280;64505;51.458;7.556;2023-05-14T04:34:10;99930.88;;;8.63;86.88
75775;BME280;64505;51.458;7.556;2023-05-14T04:36:12;99923.75;;;8.64;87.02
75775;BME280;64505;51.458;7.556;2023-05-14T04:38:14;99928.00;;;8.65;87.29
75775;BME280;64505;51.458;7.556;2023-05-14T04:40:16;99929.22;;;8.69;86.69
75775;BME280;64505;51.458;7.556;2023-05-14T04:42:17;99933.69;;;8.68;87.46
75775;BME280;64505;51.458;7.556;2023-05-14T04:44:19;99932.47;;;8.71;87.78
75775;BME280;64505;51.458;7.556;2023-05-14T04:46:20;99932.06;;;8.74;87.27
75775;BME280;64505;51.458;7.556;2023-05-14T04:48:22;99933.47;;;8.76;87.24
75775;BME280;64505;51.458;7.556;2023-05-14T04:50:24;99938.94;;;8.81;87.55
75775;BME280;64505;51.458;7.556;2023-05-14T04:52:26;99934.06;;;8.85;88.38
75775;BME280;64505;51.458;7.556;2023-05-14T04:54:28;99933.47;;;8.89;88.38
75775;BME280;64505;51.458;7.556;2023-05-14T04:56:29;99936.50;;;8.93;88.01
75775;BME280;64505;51.458;7.556;2023-05-14T04:58:31;99932.22;;;8.99;87.27
75775;BME280;64505;51.458;7.556;2023-05-14T05:00:35;99937.69;;;9.04;87.26
75775;BME280;64505;51.458;7.556;2023-05-14T05:02:37;99928.94;;;9.10;86.94
75775;BME280;64505;51.458;7.556;2023-05-14T05:04:38;99937.84;;;9.15;87.86
75775;BME280;64505;51.458;7.556;2023-05-14T05:06:40;99930.13;;;9.20;87.81
75775;BME280;64505;51.458;7.556;2023-05-14T05:08:42;99928.28;;;9.27;88.03
75775;BME280;64505;51.458;7.556;2023-05-14T05:10:43;99926.03;;;9.31;88.59
75775;BME280;64505;51.458;7.556;2023-05-14T05:12:45;99924.16;;;9.38;87.13
75775;BME280;64505;51.458;7.556;2023-05-14T05:14:46;99922.31;;;9.45;86.59
75775;BME280;64505;51.458;7.556;2023-05-14T05:16:48;99930.41;;;9.50;87.52
75775;BME280;64505;51.458;7.556;2023-05-14T05:18:49;99922.06;;;9.53;87.00
75775;BME280;64505;51.458;7.556;2023-05-14T05:20:51;99922.84;;;9.60;87.42
75775;BME280;64505;51.458;7.556;2023-05-14T05:22:53;99930.16;;;9.65;87.81
75775;BME280;64505;51.458;7.556;2023-05-14T05:24:54;99919.75;;;9.70;87.28
75775;BME280;64505;51.458;7.556;2023-05-14T05:26:56;99918.31;;;9.74;87.20
75775;BME280;64505;51.458;7.556;2023-05-14T05:28:57;99925.78;;;9.77;86.96
75775;BME280;64505;51.458;7.556;2023-05-14T05:30:59;99924.16;;;9.82;86.91
75775;BME280;64505;51.458;7.556;2023-05-14T05:33:01;99919.84;;;9.88;88.66
75775;BME280;64505;51.458;7.556;2023-05-14T05:35:03;99921.03;;;9.92;87.70
75775;BME280;64505;51.458;7.556;2023-05-14T05:37:04;99928.34;;;9.97;88.83
75775;BME280;64505;51.458;7.556;2023-05-14T05:39:06;99923.44;;;10.00;88.13
75775;BME280;64505;51.458;7.556;2023-05-14T05:41:08;99926.44;;;10.04;88.37
75775;BME280;64505;51.458;7.556;2023-05-14T05:43:09;99931.91;;;10.09;87.75
75775;BME280;64505;51.458;7.556;2023-05-14T05:45:11;99928.63;;;10.13;87.04
75775;BME280;64505;51.458;7.556;2023-05-14T05:47:12;99930.88;;;10.16;87.88
75775;BME280;64505;51.458;7.556;2023-05-14T05:49:14;99924.97;;;10.14;87.92
75775;BME280;64505;51.458;7.556;2023-05-14T05:51:15;99930.28;;;10.14;88.91
75775;BME280;64505;51.458;7.556;2023-05-14T05:53:17;99929.41;;;10.14;88.05
75775;BME280;64505;51.458;7.556;2023-05-14T05:55:19;99935.56;;;10.14;87.78
75775;BME280;64505;51.458;7.556;2023-05-14T05:57:20;99935.75;;;10.13;87.52
75775;BME280;64505;51.458;7.556;2023-05-14T05:59:26;99936.38;;;10.15;88.72
75775;BME280;64505;51.458;7.556;2023-05-14T06:01:28;99945.09;;;10.15;86.98
75775;BME280;64505;51.458;7.556;2023-05-14T06:03:29;99942.22;;;10.17;87.28
75775;BME280;64505;51.458;7.556;2023-05-14T06:05:31;99940.22;;;10.19;87.26
75775;BME280;64505;51.458;7.556;2023-05-14T06:07:33;99941.16;;;10.24;87.41
75775;BME280;64505;51.458;7.556;2023-05-14T06:09:34;99937.44;;;10.32;86.95
75775;BME280;64505;51.458;7.556;2023-05-14T06:11:36;99936.19;;;10.41;88.27
75775;BME280;64505;51.458;7.556;2023-05-14T06:13:37;99936.13;;;10.48;88.05
75775;BME280;64505;51.458;7.556;2023-05-14T06:15:40;99940.91;;;10.57;87.73
75775;BME280;64505;51.458;7.556;2023-05-14T06:17:42;99942.25;;;10.66;87.06
75775;BME280;64505;51.458;7.556;2023-05-14T06:19:44;99935.66;;;10.75;86.23
75775;BME280;64505;51.458;7.556;2023-05-14T06:21:45;99942.28;;;10.84;86.13
75775;BME280;64505;51.458;7.556;2023-05-14T06:23:47;99947.28;;;10.93;85.09
75775;BME280;64505;51.458;7.556;2023-05-14T06:25:49;99940.91;;;11.00;86.16
75775;BME280;64505;51.458;7.556;2023-05-14T06:27:51;99947.75;;;11.08;86.08
75775;BME280;64505;51.458;7.556;2023-05-14T06:29:52;99947.25;;;11.17;84.08
75775;BME280;64505;51.458;7.556;2023-05-14T06:32:02;99940.84;;;11.25;85.43
75775;BME280;64505;51.458;7.556;2023-05-14T06:34:04;99939.50;;;11.34;84.63
75775;BME280;64505;51.458;7.556;2023-05-14T06:36:07;99943.47;;;11.43;83.71
75775;BME280;64505;51.458;7.556;2023-05-14T06:38:08;99940.53;;;11.51;84.32
75775;BME280;64505;51.458;7.556;2023-05-14T06:40:11;99938.38;;;11.60;84.25
75775;BME280;64505;51.458;7.556;2023-05-14T06:42:13;99946.03;;;11.68;83.96
75775;BME280;64505;51.458;7.556;2023-05-14T06:44:18;99945.31;;;11.79;86.32
75775;BME280;64505;51.458;7.556;2023-05-14T06:46:20;99944.97;;;11.87;85.92
75775;BME280;64505;51.458;7.556;2023-05-14T06:48:21;99941.44;;;11.93;84.74
75775;BME280;64505;51.458;7.556;2023-05-14T06:50:23;99944.44;;;11.97;85.70
75775;BME280;64505;51.458;7.556;2023-05-14T06:52:25;99944.34;;;12.03;85.04
75775;BME280;64505;51.458;7.556;2023-05-14T06:54:27;99942.16;;;12.12;83.58
75775;BME280;64505;51.458;7.556;2023-05-14T06:56:31;99939.19;;;12.20;83.02
75775;BME280;64505;51.458;7.556;2023-05-14T06:58:32;99938.06;;;12.27;83.44
75775;BME280;64505;51.458;7.556;2023-05-14T07:00:34;99943.50;;;12.32;82.57
75775;BME280;64505;51.458;7.556;2023-05-14T07:02:36;99928.84;;;12.42;81.72
75775;BME280;64505;51.458;7.556;2023-05-14T07:04:37;99932.53;;;12.52;81.79
75775;BME280;64505;51.458;7.556;2023-05-14T07:06:39;99932.00;;;12.62;80.30
75775;BME280;64505;51.458;7.556;2023-05-14T07:08:42;99937.75;;;12.70;80.30
75775;BME280;64505;51.458;7.556;2023-05-14T07:10:46;99930.47;;;12.77;79.85
75775;BME280;64505;51.458;7.556;2023-05-14T07:12:48;99933.94;;;12.78;78.58
75775;BME280;64505;51.458;7.556;2023-05-14T07:14:49;99934.41;;;12.87;77.30
75775;BME280;64505;51.458;7.556;2023-05-14T07:16:51;99934.28;;;12.93;77.66
75775;BME280;64505;51.458;7.556;2023-05-14T07:18:53;99930.81;;;13.04;77.56
75775;BME280;64505;51.458;7.556;2023-05-14T07:20:54;99928.50;;;13.08;77.19
75775;BME280;64505;51.458;7.556;2023-05-14T07:22:56;99929.53;;;13.18;76.01
75775;BME280;64505;51.458;7.556;2023-05-14T07:24:57;99923.41;;;13.29;76.02
75775;BME280;64505;51.458;7.556;2023-05-14T07:26:59;99925.44;;;13.39;76.05
75775;BME280;64505;51.458;7.556;2023-05-14T07:29:02;99921.88;;;13.45;75.89
75775;BME280;64505;51.458;7.556;2023-05-14T07:31:03;99921.03;;;13.56;76.78
75775;BME280;64505;51.458;7.556;2023-05-14T07:33:09;99925.22;;;13.69;75.67
75775;BME280;64505;51.458;7.556;2023-05-14T07:35:11;99915.75;;;13.73;75.75
75775;BME280;64505;51.458;7.556;2023-05-14T07:37:12;99916.19;;;13.82;75.12
75775;BME280;64505;51.458;7.556;2023-05-14T07:39:14;99914.34;;;13.99;74.08
75775;BME280;64505;51.458;7.556;2023-05-14T07:41:16;99920.31;;;14.06;73.77
75775;BME280;64505;51.458;7.556;2023-05-14T07:43:17;99916.47;;;14.13;74.44
75775;BME280;64505;51.458;7.556;2023-05-14T07:45:19;99913.88;;;14.18;72.69
75775;BME280;64505;51.458;7.556;2023-05-14T07:47:20;99913.00;;;14.29;72.36
75775;BME280;64505;51.458;7.556;2023-05-14T07:49:22;99913.13;;;14.35;72.69
75775;BME280;64505;51.458;7.556;2023-05-14T07:51:23;99909.47;;;14.41;71.45
75775;BME280;64505;51.458;7.556;2023-05-14T07:53:28;99906.75;;;14.52;70.61
75775;BME280;64505;51.458;7.556;2023-05-14T07:55:30;99908.00;;;14.66;71.08
75775;BME280;64505;51.458;7.556;2023-05-14T07:57:31;99909.78;;;14.77;69.67
75775;BME280;64505;51.458;7.556;2023-05-14T07:59:33;99904.75;;;14.81;69.57
75775;BME280;64505;51.458;7.556;2023-05-14T08:01:34;99911.53;;;14.89;69.26
75775;BME280;64505;51.458;7.556;2023-05-14T08:03:39;99906.41;;;15.04;69.96
75775;BME280;64505;51.458;7.556;2023-05-14T08:05:41;99912.41;;;15.16;69.74
75775;BME280;64505;51.458;7.556;2023-05-14T08:07:43;99909.56;;;15.22;70.47
75775;BME280;64505;51.458;7.556;2023-05-14T08:09:44;99905.91;;;15.28;69.58
75775;BME280;64505;51.458;7.556;2023-05-14T08:11:46;99907.06;;;15.38;70.40
75775;BME280;64505;51.458;7.556;2023-05-14T08:13:47;99911.25;;;15.50;69.70
75775;BME280;64505;51.458;7.556;2023-05-14T08:15:49;99912.38;;;15.54;69.20
75775;BME280;64505;51.458;7.556;2023-05-14T08:17:51;99915.66;;;15.61;68.58
75775;BME280;64505;51.458;7.556;2023-05-14T08:19:53;99905.28;;;15.65;68.18
75775;BME280;64505;51.458;7.556;2023-05-14T08:21:54;99915.25;;;15.74;67.78
75775;BME280;64505;51.458;7.556;2023-05-14T08:23:56;99908.41;;;15.84;68.80
75775;BME280;64505;51.458;7.556;2023-05-14T08:25:58;99907.41;;;15.90;67.09
75775;BME280;64505;51.458;7.556;2023-05-14T08:28:00;99912.53;;;15.96;66.25
75775;BME280;64505;51.458;7.556;2023-05-14T08:30:02;99910.50;;;16.08;65.98
75775;BME280;64505;51.458;7.556;2023-05-14T08:32:04;99907.13;;;16.18;67.16
75775;BME280;64505;51.458;7.556;2023-05-14T08:34:23;99911.94;;;16.21;66.08
75775;BME280;64505;51.458;7.556;2023-05-14T08:36:24;99903.78;;;16.33;65.21
75775;BME280;64505;51.458;7.556;2023-05-14T08:38:27;99907.06;;;16.45;64.64
75775;BME280;64505;51.458;7.556;2023-05-14T08:40:28;99913.53;;;16.49;63.87
75775;BME280;64505;51.458;7.556;2023-05-14T08:42:30;99908.28;;;16.59;65.56
75775;BME280;64505;51.458;7.556;2023-05-14T08:44:38;99907.28;;;16.75;65.62
75775;BME280;64505;51.458;7.556;2023-05-14T08:46:45;99900.38;;;16.74;63.21
75775;BME280;64505;51.458;7.556;2023-05-14T08:48:55;99900.59;;;16.72;61.95
75775;BME280;64505;51.458;7.556;2023-05-14T08:50:58;99902.81;;;16.86;62.58
75775;BME280;64505;51.458;7.556;2023-05-14T08:53:01;99906.09;;;16.93;63.83
75775;BME280;64505;51.458;7.556;2023-05-14T08:55:03;99900.22;;;16.96;62.26
75775;BME280;64505;51.458;7.556;2023-05-14T08:57:08;99894.97;;;17.11;63.14
75775;BME280;64505;51.458;7.556;2023-05-14T08:59:11;99893.34;;;17.10;59.63
75775;BME280;64505;51.458;7.556;2023-05-14T09:01:13;99896.00;;;17.15;60.63
75775;BME280;64505;51.458;7.556;2023-05-14T09:03:14;99886.66;;;17.12;60.88
75775;BME280;64505;51.458;7.556;2023-05-14T09:05:17;99888.84;;;17.26;61.72
75775;BME280;64505;51.458;7.556;2023-05-14T09:07:19;99881.13;;;17.34;60.11
75775;BME280;64505;51.458;7.556;2023-05-14T09:09:21;99889.44;;;17.33;58.45
75775;BME280;64505;51.458;7.556;2023-05-14T09:11:23;99875.75;;;17.29;57.87
75775;BME280;64505;51.458;7.556;2023-05-14T09:13:25;99888.91;;;17.41;59.14
75775;BME280;64505;51.458;7.556;2023-05-14T09:15:29;99882.78;;;17.45;58.15
75775;BME280;64505;51.458;7.556;2023-05-14T09:17:32;99882.25;;;17.53;57.13
75775;BME280;64505;51.458;7.556;2023-05-14T09:19:34;99881.72;;;17.51;57.67
75775;BME280;64505;51.458;7.556;2023-05-14T09:21:36;99883.41;;;17.67;58.57
75775;BME280;64505;51.458;7.556;2023-05-14T09:23:41;99889.56;;;17.78;58.00
75775;BME280;64505;51.458;7.556;2023-05-14T09:25:42;99881.53;;;17.88;57.22
75775;BME280;64505;51.458;7.556;2023-05-14T09:27:45;99878.59;;;17.95;56.06
75775;BME280;64505;51.458;7.556;2023-05-14T09:29:50;99880.50;;;17.89;54.31
75775;BME280;64505;51.458;7.556;2023-05-14T09:31:53;99879.16;;;18.07;56.61
75775;BME280;64505;51.458;7.556;2023-05-14T09:33:55;99875.69;;;18.22;56.43
75775;BME280;64505;51.458;7.556;2023-05-14T09:36:00;99880.50;;;18.25;55.79
75775;BME280;64505;51.458;7.556;2023-05-14T09:38:02;99875.94;;;18.30;55.48
75775;BME280;64505;51.458;7.556;2023-05-14T09:40:05;99883.72;;;18.37;56.34
75775;BME280;64505;51.458;7.556;2023-05-14T09:42:09;99872.72;;;18.33;55.25
75775;BME280;64505;51.458;7.556;2023-05-14T09:44:10;99862.28;;;18.47;56.25
75775;BME280;64505;51.458;7.556;2023-05-14T09:46:12;99868.16;;;18.44;55.09
75775;BME280;64505;51.458;7.556;2023-05-14T09:48:14;99860.69;;;18.41;53.08
75775;BME280;64505;51.458;7.556;2023-05-14T09:50:16;99860.94;;;18.54;56.07
75775;BME280;64505;51.458;7.556;2023-05-14T09:52:18;99861.75;;;18.55;56.08
75775;BME280;64505;51.458;7.556;2023-05-14T09:54:20;99858.25;;;18.70;57.40
75775;BME280;64505;51.458;7.556;2023-05-14T09:56:21;99853.41;;;18.77;59.68
75775;BME280;64505;51.458;7.556;2023-05-14T09:58:23;99849.06;;;18.86;56.91
75775;BME280;64505;51.458;7.556;2023-05-14T10:00:25;99848.25;;;18.90;57.78
75775;BME280;64505;51.458;7.556;2023-05-14T10:02:31;99848.25;;;18.90;56.85
75775;BME280;64505;51.458;7.556;2023-05-14T10:04:38;99845.53;;;19.05;57.26
75775;BME280;64505;51.458;7.556;2023-05-14T10:06:41;99848.63;;;19.28;57.18
75775;BME280;64505;51.458;7.556;2023-05-14T10:08:45;99832.50;;;19.38;57.28
75775;BME280;64505;51.458;7.556;2023-05-14T10:10:50;99843.19;;;19.43;57.46
75775;BME280;64505;51.458;7.556;2023-05-14T10:12:56;99843.84;;;19.69;58.01
75775;BME280;64505;51.458;7.556;2023-05-14T10:15:03;99848.53;;;19.53;55.16
75775;BME280;64505;51.458;7.556;2023-05-14T10:17:07;99846.66;;;19.48;56.42
75775;BME280;64505;51.458;7.556;2023-05-14T10:19:20;99843.66;;;19.55;57.64
75775;BME280;64505;51.458;7.556;2023-05-14T10:21:25;99835.16;;;19.43;55.26
75775;BME280;64505;51.458;7.556;2023-05-14T10:23:29;99835.63;;;19.55;55.06
75775;BME280;64505;51.458;7.556;2023-05-14T10:25:31;99838.22;;;19.65;53.45
75775;BME280;64505;51.458;7.556;2023-05-14T10:27:33;99831.41;;;19.83;56.37
75775;BME280;64505;51.458;7.556;2023-05-14T10:29:36;99829.50;;;19.88;52.32
75775;BME280;64505;51.458;7.556;2023-05-14T10:31:52;99830.19;;;20.04;55.36
75775;BME280;64505;51.458;7.556;2023-05-14T10:33:56;99829.41;;;19.98;54.28
75775;BME280;64505;51.458;7.556;2023-05-14T10:36:02;99824.00;;;19.70;53.90
75775;BME280;64505;51.458;7.556;2023-05-14T10:38:07;99828.91;;;19.96;57.77
75775;BME280;64505;51.458;7.556;2023-05-14T10:40:09;99827.97;;;19.77;48.45
75775;BME280;64505;51.458;7.556;2023-05-14T10:42:13;99830.19;;;20.04;52.55
75775;BME280;64505;51.458;7.556;2023-05-14T10:44:16;99828.72;;;20.17;50.93
75775;BME280;64505;51.458;7.556;2023-05-14T10:46:17;99825.38;;;20.30;51.05
75775;BME280;64505;51.458;7.556;2023-05-14T10:48:19;99821.22;;;20.13;50.91
75775;BME280;64505;51.458;7.556;2023-05-14T10:50:21;99820.00;;;20.30;52.06
75775;BME280;64505;51.458;7.556;2023-05-14T10:52:24;99818.03;;;20.40;52.33
75775;BME280;64505;51.458;7.556;2023-05-14T10:54:27;99803.94;;;20.25;49.90
75775;BME280;64505;51.458;7.556;2023-05-14T10:56:29;99811.94;;;20.30;50.88
75775;BME280;64505;51.458;7.556;2023-05-14T10:58:31;99818.97;;;20.54;53.40
75775;BME280;64505;51.458;7.556;2023-05-14T11:00:36;99816.22;;;20.59;52.58
75775;BME280;64505;51.458;7.556;2023-05-14T11:02:39;99821.78;;;20.68;53.76